createdAt,value
2023-05-15T00:00:27.693Z,71.59
2023-05-15T00:02:54.085Z,71.65
2023-05-15T00:05:21.238Z,71.74
2023-05-15T00:07:47.608Z,72.14
2023-05-15T00:10:13.888Z,72.02
2023-05-15T00:12:40.206Z,71.46
2023-05-15T00:15:06.827Z,70.42
2023-05-15T00:17:33.128Z,71.50
2023-05-15T00:20:00.387Z,70.37
2023-05-15T00:22:26.827Z,71.59
2023-05-15T00:24:53.188Z,71.81
2023-05-15T00:27:19.539Z,70.89
2023-05-15T00:29:45.866Z,71.58
2023-05-15T00:32:12.271Z,70.81
2023-05-15T00:34:38.629Z,70.29
2023-05-15T00:37:05.134Z,70.63
2023-05-15T00:39:31.436Z,70.75
2023-05-15T00:41:59.570Z,70.82
2023-05-15T00:44:28.328Z,70.90
2023-05-15T00:46:55.650Z,71.61
2023-05-15T00:49:22.474Z,71.24
2023-05-15T00:51:49.131Z,71.76
2023-05-15T00:54:16.181Z,71.29
2023-05-15T00:56:43.610Z,71.61
2023-05-15T00:59:09.999Z,71.36
2023-05-15T01:01:36.572Z,71.88
2023-05-15T01:04:03.454Z,71.91
2023-05-15T01:06:30.394Z,71.37
2023-05-15T01:08:57.836Z,71.90
2023-05-15T01:11:26.915Z,72.39
2023-05-15T01:13:53.325Z,72.91
2023-05-15T01:16:21.554Z,72.62
2023-05-15T01:18:48.052Z,71.80
2023-05-15T01:21:17.169Z,72.32
2023-05-15T01:23:43.446Z,70.21
2023-05-15T01:26:28.423Z,70.59
2023-05-15T01:29:13.520Z,70.85
2023-05-15T01:31:41.245Z,70.24
2023-05-15T01:34:09.466Z,70.84
2023-05-15T01:37:02.121Z,71.23
2023-05-15T01:39:28.996Z,70.58
2023-05-15T01:42:00.444Z,69.91
2023-05-15T01:44:35.719Z,68.76
2023-05-15T01:47:06.424Z,67.17
2023-05-15T01:49:33.535Z,68.42
2023-05-15T01:52:03.473Z,68.12
2023-05-15T01:54:29.997Z,68.61
2023-05-15T01:56:57.344Z,69.39
2023-05-15T01:59:24.943Z,69.69
2023-05-15T02:01:52.117Z,68.76
2023-05-15T02:04:19.685Z,68.86
2023-05-15T02:06:47.365Z,69.38
2023-05-15T02:09:14.828Z,69.31
2023-05-15T02:11:41.982Z,69.85
2023-05-15T02:14:09.198Z,70.34
2023-05-15T02:16:35.760Z,69.73
2023-05-15T02:19:02.196Z,70.19
2023-05-15T02:21:29.066Z,70.19
2023-05-15T02:23:55.353Z,70.26
2023-05-15T02:27:00.245Z,70.50
2023-05-15T02:29:46.791Z,71.30
2023-05-15T02:32:18.955Z,70.76
2023-05-15T02:34:50.803Z,70.73
2023-05-15T02:37:20.986Z,70.41
2023-05-15T02:39:49.570Z,70.67
2023-05-15T02:42:15.975Z,71.51
2023-05-15T02:44:42.592Z,70.59
2023-05-15T02:47:09.528Z,71.05
2023-05-15T02:49:35.862Z,71.68
2023-05-15T02:52:02.599Z,71.04
2023-05-15T02:54:28.895Z,71.44
2023-05-15T02:56:55.198Z,71.63
2023-05-15T02:59:21.809Z,72.24
2023-05-15T03:01:48.229Z,71.38
2023-05-15T03:04:14.818Z,71.67
2023-05-15T03:06:41.218Z,71.60
2023-05-15T03:09:08.044Z,71.59
2023-05-15T03:11:34.360Z,71.94
2023-05-15T03:14:00.783Z,72.58
2023-05-15T03:16:27.336Z,73.91
2023-05-15T03:18:53.727Z,72.43
2023-05-15T03:21:20.256Z,72.84
2023-05-15T03:23:46.557Z,74.24
2023-05-15T03:26:12.968Z,73.68
2023-05-15T03:28:40.561Z,73.66
2023-05-15T03:31:08.543Z,73.04
2023-05-15T03:33:34.892Z,73.48
2023-05-15T03:36:01.267Z,73.98
2023-05-15T03:38:27.622Z,73.72
2023-05-15T03:40:53.894Z,73.45
2023-05-15T03:43:20.243Z,73.93
2023-05-15T03:45:46.569Z,73.98
2023-05-15T03:48:12.895Z,74.17
2023-05-15T03:50:40.180Z,73.82
2023-05-15T03:53:06.595Z,73.39
2023-05-15T03:55:33.067Z,73.31
2023-05-15T03:57:59.513Z,73.49
2023-05-15T04:00:26.073Z,73.54
2023-05-15T04:02:52.758Z,74.60
2023-05-15T04:05:22.560Z,74.33
2023-05-15T04:07:49.071Z,73.92
2023-05-15T04:10:15.516Z,73.36
2023-05-15T04:12:41.908Z,73.80
2023-05-15T04:15:14.037Z,74.41
2023-05-15T04:17:40.384Z,73.80
2023-05-15T04:20:07.375Z,74.27
2023-05-15T04:22:33.650Z,72.18
2023-05-15T04:24:59.933Z,72.32
2023-05-15T04:27:26.700Z,71.87
2023-05-15T04:29:53.204Z,71.67
2023-05-15T04:32:19.625Z,70.48
2023-05-15T04:34:46.139Z,71.08
2023-05-15T04:37:12.449Z,70.98
2023-05-15T04:39:38.721Z,70.89
2023-05-15T04:42:05.207Z,70.11
2023-05-15T04:44:32.044Z,71.79
2023-05-15T04:46:58.354Z,71.64
2023-05-15T04:49:24.710Z,71.31
2023-05-15T04:51:50.985Z,71.23
2023-05-15T04:54:17.293Z,70.33
2023-05-15T04:56:43.824Z,70.80
2023-05-15T04:59:10.869Z,69.73
2023-05-15T05:01:37.329Z,69.39
2023-05-15T05:04:03.830Z,69.99
2023-05-15T05:06:30.692Z,69.89
2023-05-15T05:08:57.132Z,71.64
2023-05-15T05:11:23.465Z,71.34
2023-05-15T05:13:50.031Z,71.39
2023-05-15T05:16:16.372Z,71.26
2023-05-15T05:18:42.696Z,69.80
2023-05-15T05:21:09.013Z,69.56
2023-05-15T05:23:35.363Z,69.69
2023-05-15T05:26:03.019Z,68.64
2023-05-15T05:28:30.563Z,69.38
2023-05-15T05:30:56.893Z,70.64
2023-05-15T05:33:23.241Z,69.07
2023-05-15T05:35:49.600Z,69.46
2023-05-15T05:38:16.011Z,70.20
2023-05-15T05:40:42.650Z,68.96
2023-05-15T05:43:08.940Z,68.44
2023-05-15T05:45:35.266Z,68.10
2023-05-15T05:48:01.620Z,67.08
2023-05-15T05:50:28.029Z,67.11
2023-05-15T05:52:54.303Z,67.76
2023-05-15T05:55:20.684Z,68.17
2023-05-15T05:57:46.973Z,67.78
2023-05-15T06:00:14.172Z,67.30
2023-05-15T06:02:40.666Z,66.60
2023-05-15T06:05:07.415Z,68.31
2023-05-15T06:07:34.135Z,68.12
2023-05-15T06:10:00.535Z,67.43
2023-05-15T06:12:27.879Z,67.24
2023-05-15T06:14:54.175Z,67.30
2023-05-15T06:17:21.165Z,66.36
2023-05-15T06:19:47.466Z,65.98
2023-05-15T06:22:13.772Z,66.32
2023-05-15T06:24:40.100Z,66.41
2023-05-15T06:27:06.436Z,66.64
2023-05-15T06:29:32.765Z,66.35
2023-05-15T06:31:59.064Z,65.25
2023-05-15T06:34:25.351Z,64.09
2023-05-15T06:36:52.489Z,63.92
2023-05-15T06:39:18.829Z,64.32
2023-05-15T06:41:45.438Z,64.06
2023-05-15T06:44:11.730Z,62.86
2023-05-15T06:46:38.087Z,62.97
2023-05-15T06:49:04.419Z,63.14
2023-05-15T06:51:30.851Z,63.42
2023-05-15T06:53:57.210Z,61.36
2023-05-15T06:56:23.937Z,62.01
2023-05-15T06:58:50.311Z,61.27
2023-05-15T07:01:16.712Z,61.91
2023-05-15T07:03:43.066Z,61.59
2023-05-15T07:06:09.446Z,61.31
2023-05-15T07:08:35.907Z,62.34
2023-05-15T07:11:02.274Z,62.63
2023-05-15T07:13:28.552Z,62.38
2023-05-15T07:15:54.900Z,62.97
2023-05-15T07:18:21.284Z,62.09
2023-05-15T07:20:47.666Z,62.32
2023-05-15T07:23:14.051Z,61.80
2023-05-15T07:25:40.839Z,60.05
2023-05-15T07:28:07.169Z,61.34
2023-05-15T07:30:33.529Z,61.03
2023-05-15T07:32:59.906Z,60.08
2023-05-15T07:35:26.590Z,59.61
2023-05-15T07:37:53.049Z,58.41
2023-05-15T07:40:19.389Z,56.76
2023-05-15T07:42:45.721Z,55.91
2023-05-15T07:45:12.108Z,56.26
2023-05-15T07:47:38.523Z,55.25
2023-05-15T07:50:05.108Z,56.37
2023-05-15T07:52:31.462Z,56.10
2023-05-15T07:54:58.123Z,56.88
2023-05-15T07:57:25.443Z,58.09
2023-05-15T07:59:51.772Z,56.43
2023-05-15T08:02:18.200Z,58.13
2023-05-15T08:04:44.546Z,56.93
2023-05-15T08:07:10.868Z,55.64
2023-05-15T08:09:37.206Z,56.94
2023-05-15T08:12:22.937Z,56.19
2023-05-15T08:14:49.338Z,55.48
2023-05-15T08:17:16.034Z,53.88
2023-05-15T08:19:42.404Z,56.00
2023-05-15T08:22:09.037Z,54.21
2023-05-15T08:24:35.377Z,54.82
2023-05-15T08:27:01.718Z,53.26
2023-05-15T08:29:28.051Z,51.77
2023-05-15T08:31:54.359Z,51.38
2023-05-15T08:34:20.786Z,51.67
2023-05-15T08:36:47.074Z,54.36
2023-05-15T08:39:13.335Z,53.17
2023-05-15T08:41:47.206Z,53.90
2023-05-15T08:44:14.094Z,54.15
2023-05-15T08:46:41.090Z,54.31
2023-05-15T08:49:13.046Z,55.39
2023-05-15T08:51:39.427Z,54.57
2023-05-15T08:54:06.357Z,54.26
2023-05-15T08:56:32.982Z,55.03
2023-05-15T08:58:59.488Z,53.82
2023-05-15T09:01:26.481Z,54.06
2023-05-15T09:03:52.871Z,54.44
2023-05-15T09:06:19.271Z,54.38
2023-05-15T09:08:46.304Z,55.61
2023-05-15T09:11:13.889Z,53.82
2023-05-15T09:13:40.196Z,54.14
2023-05-15T09:16:07.286Z,54.87
2023-05-15T09:18:33.728Z,53.37
2023-05-15T09:21:18.953Z,53.70
2023-05-15T09:23:45.321Z,54.85
2023-05-15T09:26:12.545Z,57.08
2023-05-15T09:28:39.146Z,55.82
2023-05-15T09:31:05.615Z,54.46
2023-05-15T09:33:33.126Z,56.35
2023-05-15T09:35:59.790Z,54.04
2023-05-15T09:38:26.208Z,54.50
2023-05-15T09:41:00.897Z,54.15
2023-05-15T09:43:28.578Z,52.97
2023-05-15T09:45:55.032Z,53.16
2023-05-15T09:48:21.493Z,54.53
2023-05-15T09:50:47.969Z,55.28
2023-05-15T09:53:14.491Z,54.93
2023-05-15T09:55:41.710Z,54.36
2023-05-15T09:58:12.249Z,52.31
2023-05-15T10:00:47.844Z,52.35
2023-05-15T10:03:15.649Z,51.88
2023-05-15T10:05:43.541Z,50.79
2023-05-15T10:08:11.273Z,49.48
2023-05-15T10:10:37.697Z,49.45
2023-05-15T10:13:05.815Z,49.13
2023-05-15T10:15:32.579Z,50.54
2023-05-15T10:17:59.397Z,49.51
2023-05-15T10:20:27.793Z,49.18
2023-05-15T10:22:55.806Z,48.82
2023-05-15T10:25:33.635Z,49.97
2023-05-15T10:28:00.931Z,51.47
2023-05-15T10:30:28.500Z,50.41
2023-05-15T10:32:55.785Z,50.75
2023-05-15T10:35:22.204Z,52.59
2023-05-15T10:37:49.137Z,50.39
2023-05-15T10:40:17.129Z,51.93
2023-05-15T10:42:44.412Z,53.41
2023-05-15T10:45:10.869Z,51.48
2023-05-15T10:47:38.444Z,52.24
2023-05-15T10:50:05.713Z,51.94
2023-05-15T10:52:33.249Z,52.26
2023-05-15T10:55:00.038Z,51.71
2023-05-15T10:57:28.884Z,49.99
2023-05-15T10:59:55.611Z,49.60
2023-05-15T11:02:26.545Z,49.08
2023-05-15T11:04:56.718Z,49.84
2023-05-15T11:07:24.143Z,50.12
2023-05-15T11:09:50.840Z,52.92
2023-05-15T11:12:17.239Z,51.87
2023-05-15T11:14:44.496Z,48.71
2023-05-15T11:17:11.791Z,47.13
2023-05-15T11:19:39.966Z,48.77
2023-05-15T11:22:09.365Z,48.74
2023-05-15T11:24:54.563Z,48.89
2023-05-15T11:27:29.212Z,48.11
2023-05-15T11:30:07.921Z,49.60
2023-05-15T11:32:41.545Z,48.98
2023-05-15T11:35:11.745Z,49.43
2023-05-15T11:37:48.403Z,49.75
2023-05-15T11:40:18.712Z,51.62
2023-05-15T11:43:04.638Z,49.61
2023-05-15T11:45:32.859Z,49.31
2023-05-15T11:48:03.352Z,48.28
2023-05-15T11:50:33.649Z,48.02
2023-05-15T11:53:04.441Z,46.59
2023-05-15T11:55:34.955Z,46.62
2023-05-15T11:58:01.799Z,47.36
2023-05-15T12:00:28.095Z,44.88
2023-05-15T12:02:54.543Z,45.09
2023-05-15T12:05:20.993Z,43.79
2023-05-15T12:07:47.353Z,43.27
2023-05-15T12:10:13.966Z,42.48
2023-05-15T12:12:44.229Z,42.62
2023-05-15T12:15:11.339Z,42.92
2023-05-15T12:17:41.134Z,43.58
2023-05-15T12:20:09.012Z,44.67
2023-05-15T12:22:39.115Z,45.80
2023-05-15T12:25:09.436Z,47.52
2023-05-15T12:27:36.416Z,45.12
2023-05-15T12:30:03.958Z,44.29
2023-05-15T12:32:37.728Z,44.43
2023-05-15T12:35:05.133Z,43.54
2023-05-15T12:37:34.853Z,43.93
2023-05-15T12:40:02.393Z,44.12
2023-05-15T12:42:28.789Z,44.45
2023-05-15T12:44:55.948Z,44.52
2023-05-15T12:47:23.515Z,43.82
2023-05-15T12:49:49.934Z,44.49
2023-05-15T12:52:17.052Z,44.31
2023-05-15T12:54:44.594Z,45.56
2023-05-15T12:57:11.108Z,45.83
2023-05-15T12:59:38.629Z,44.82
2023-05-15T13:02:08.842Z,46.05
2023-05-15T13:04:35.236Z,46.88
2023-05-15T13:07:01.528Z,45.61
2023-05-15T13:09:27.902Z,45.34
2023-05-15T13:11:57.219Z,46.17
2023-05-15T13:14:27.042Z,45.75
2023-05-15T13:16:53.403Z,45.27
2023-05-15T13:19:19.766Z,46.35
2023-05-15T13:21:46.486Z,46.34
2023-05-15T13:24:12.797Z,46.15
2023-05-15T13:26:39.530Z,47.09
2023-05-15T13:29:05.962Z,46.84
2023-05-15T13:31:32.567Z,46.49
2023-05-15T13:33:58.880Z,45.99
2023-05-15T13:36:25.196Z,45.84
2023-05-15T13:38:51.624Z,46.54
2023-05-15T13:41:18.057Z,45.68
2023-05-15T13:43:44.373Z,45.50
2023-05-15T13:46:10.768Z,46.65
2023-05-15T13:48:37.088Z,46.32
2023-05-15T13:51:03.461Z,47.27
2023-05-15T13:53:29.816Z,46.25
2023-05-15T13:55:56.210Z,46.41
2023-05-15T13:58:22.558Z,45.57
2023-05-15T14:00:48.944Z,45.22
2023-05-15T14:03:15.619Z,46.84
2023-05-15T14:05:42.035Z,46.16
2023-05-15T14:08:08.976Z,49.39
2023-05-15T14:10:38.150Z,45.38
2023-05-15T14:13:04.525Z,44.01
2023-05-15T14:15:30.852Z,44.56
2023-05-15T14:17:57.164Z,45.55
2023-05-15T14:20:23.751Z,47.32
2023-05-15T14:22:50.226Z,49.21
2023-05-15T14:25:16.532Z,50.04
2023-05-15T14:27:42.866Z,50.51
2023-05-15T14:30:09.512Z,50.72
2023-05-15T14:32:35.946Z,50.48
2023-05-15T14:35:02.343Z,51.29
2023-05-15T14:37:28.685Z,51.66
2023-05-15T14:39:55.099Z,52.00
2023-05-15T14:42:21.596Z,52.18
2023-05-15T14:44:48.506Z,52.25
2023-05-15T14:47:16.160Z,53.54
2023-05-15T14:49:42.872Z,53.16
2023-05-15T14:52:09.869Z,53.20
2023-05-15T14:54:36.220Z,53.03
2023-05-15T14:57:02.559Z,52.68
2023-05-15T14:59:28.949Z,53.63
2023-05-15T15:01:55.417Z,54.38
2023-05-15T15:04:21.775Z,55.36
2023-05-15T15:06:48.293Z,55.50
2023-05-15T15:09:14.645Z,54.74
2023-05-15T15:11:41.038Z,55.80
2023-05-15T15:14:07.486Z,55.06
2023-05-15T15:16:34.206Z,55.57
2023-05-15T15:19:00.735Z,54.89
2023-05-15T15:21:27.133Z,55.45
2023-05-15T15:23:54.666Z,55.09
2023-05-15T15:26:21.675Z,55.83
2023-05-15T15:28:48.030Z,54.47
2023-05-15T15:31:15.319Z,55.35
2023-05-15T15:33:41.694Z,55.47
2023-05-15T15:36:08.089Z,54.89
2023-05-15T15:38:34.418Z,55.48
2023-05-15T15:41:01.988Z,56.19
2023-05-15T15:43:28.314Z,53.14
2023-05-15T15:45:55.174Z,54.47
2023-05-15T15:48:21.559Z,53.63
2023-05-15T15:50:47.881Z,54.33
2023-05-15T15:53:14.195Z,54.53
2023-05-15T15:55:40.762Z,53.92
2023-05-15T15:58:07.125Z,54.40
2023-05-15T16:00:33.653Z,55.60
2023-05-15T16:03:00.072Z,54.55
2023-05-15T16:05:26.549Z,55.05
2023-05-15T16:07:52.879Z,55.18
2023-05-15T16:10:19.175Z,55.23
2023-05-15T16:12:45.688Z,55.77
2023-05-15T16:15:22.341Z,56.15
2023-05-15T16:17:53.548Z,58.08
2023-05-15T16:20:20.492Z,59.87
2023-05-15T16:22:46.782Z,61.50
2023-05-15T16:25:13.163Z,62.40
2023-05-15T16:27:39.496Z,61.80
2023-05-15T16:30:06.164Z,61.90
2023-05-15T16:32:33.785Z,63.32
2023-05-15T16:35:00.302Z,63.79
2023-05-15T16:37:26.599Z,65.07
2023-05-15T16:39:52.946Z,64.66
2023-05-15T16:42:19.310Z,64.96
2023-05-15T16:44:45.628Z,64.73
2023-05-15T16:47:11.979Z,63.95
2023-05-15T16:49:38.255Z,63.82
2023-05-15T16:52:04.741Z,64.73
2023-05-15T16:54:31.240Z,65.78
2023-05-15T16:56:57.613Z,64.57
2023-05-15T16:59:23.925Z,64.60
2023-05-15T17:01:50.871Z,66.19
2023-05-15T17:04:17.254Z,66.36
2023-05-15T17:06:43.563Z,64.84
2023-05-15T17:09:09.929Z,65.86
2023-05-15T17:11:36.284Z,66.29
2023-05-15T17:14:02.584Z,65.71
2023-05-15T17:16:29.361Z,65.79
2023-05-15T17:18:55.747Z,66.17
2023-05-15T17:21:22.136Z,65.98
2023-05-15T17:23:48.462Z,66.68
2023-05-15T17:26:14.747Z,67.31
2023-05-15T17:28:41.045Z,66.59
2023-05-15T17:31:11.079Z,67.78
2023-05-15T17:33:37.407Z,68.89
2023-05-15T17:36:04.000Z,68.60
2023-05-15T17:38:30.385Z,68.66
2023-05-15T17:40:56.853Z,68.87
2023-05-15T17:43:23.290Z,68.79
2023-05-15T17:45:49.823Z,68.91
2023-05-15T17:48:16.200Z,69.24
2023-05-15T17:50:42.534Z,69.89
2023-05-15T17:53:08.925Z,68.68
2023-05-15T17:55:35.271Z,68.76
2023-05-15T17:58:01.627Z,67.63
2023-05-15T18:00:27.963Z,68.25
2023-05-15T18:02:54.444Z,66.60
2023-05-15T18:05:20.845Z,66.06
2023-05-15T18:07:48.134Z,66.32
2023-05-15T18:10:14.671Z,65.52
2023-05-15T18:12:41.046Z,65.76
2023-05-15T18:15:07.642Z,65.10
2023-05-15T18:17:34.132Z,65.78
2023-05-15T18:20:01.654Z,65.54
2023-05-15T18:22:28.013Z,64.72
2023-05-15T18:24:54.421Z,64.97
2023-05-15T18:27:20.787Z,64.72
2023-05-15T18:29:47.373Z,64.91
2023-05-15T18:32:13.797Z,66.78
2023-05-15T18:34:40.100Z,67.67
2023-05-15T18:37:06.472Z,67.99
2023-05-15T18:39:32.822Z,67.73
2023-05-15T18:42:00.225Z,68.74
2023-05-15T18:44:26.672Z,68.20
2023-05-15T18:46:53.085Z,69.08
2023-05-15T18:49:19.479Z,68.43
2023-05-15T18:51:45.936Z,69.85
2023-05-15T18:54:12.255Z,70.04
2023-05-15T18:56:39.514Z,70.35
2023-05-15T18:59:06.954Z,70.05
2023-05-15T19:01:33.360Z,70.66
2023-05-15T19:03:59.743Z,70.84
2023-05-15T19:06:26.116Z,70.75
2023-05-15T19:08:52.657Z,70.56
2023-05-15T19:11:19.015Z,70.81
2023-05-15T19:13:45.452Z,71.53
2023-05-15T19:16:12.249Z,70.89
2023-05-15T19:18:38.790Z,70.75
2023-05-15T19:21:05.272Z,70.68
2023-05-15T19:23:31.632Z,71.28
2023-05-15T19:25:58.108Z,71.52
2023-05-15T19:28:24.537Z,71.13
2023-05-15T19:30:51.034Z,71.63
2023-05-15T19:33:17.673Z,71.03
2023-05-15T19:35:44.436Z,71.95
2023-05-15T19:38:10.823Z,71.27
2023-05-15T19:40:37.244Z,71.80
2023-05-15T19:43:04.235Z,71.09
2023-05-15T19:45:30.611Z,71.81
2023-05-15T19:47:57.072Z,72.05
2023-05-15T19:50:23.491Z,72.33
2023-05-15T19:52:50.264Z,71.07
2023-05-15T19:55:16.610Z,71.21
2023-05-15T19:57:45.076Z,71.45
2023-05-15T20:00:12.405Z,71.56
2023-05-15T20:02:41.501Z,71.57
2023-05-15T20:05:08.185Z,72.35
2023-05-15T20:07:35.248Z,71.55
2023-05-15T20:10:01.568Z,70.63
2023-05-15T20:12:27.906Z,69.79
2023-05-15T20:14:54.214Z,68.95
2023-05-15T20:17:20.624Z,69.05
2023-05-15T20:19:49.369Z,68.83
2023-05-15T20:22:17.088Z,68.81
2023-05-15T20:24:44.145Z,67.90
2023-05-15T20:27:11.144Z,68.48
2023-05-15T20:29:40.455Z,68.66
2023-05-15T20:32:06.937Z,68.54
2023-05-15T20:34:34.304Z,68.34
2023-05-15T20:37:00.820Z,68.83
2023-05-15T20:39:27.109Z,68.67
2023-05-15T20:41:53.481Z,67.73
2023-05-15T20:44:19.801Z,67.72
2023-05-15T20:46:46.320Z,68.44
2023-05-15T20:49:12.772Z,67.99
2023-05-15T20:51:41.563Z,68.43
2023-05-15T20:54:07.862Z,68.17
2023-05-15T20:56:34.172Z,68.36
2023-05-15T20:59:00.576Z,68.92
2023-05-15T21:01:26.928Z,67.18
2023-05-15T21:03:53.362Z,67.90
2023-05-15T21:06:19.854Z,66.99
2023-05-15T21:08:46.135Z,66.40
2023-05-15T21:11:13.376Z,67.11
2023-05-15T21:13:39.685Z,67.10
2023-05-15T21:16:06.231Z,66.00
2023-05-15T21:18:32.576Z,65.87
2023-05-15T21:20:58.920Z,66.32
2023-05-15T21:23:25.207Z,67.66
2023-05-15T21:25:51.578Z,67.13
2023-05-15T21:28:17.884Z,67.67
2023-05-15T21:30:44.285Z,67.45
2023-05-15T21:33:10.737Z,68.01
2023-05-15T21:35:37.899Z,68.23
2023-05-15T21:38:04.251Z,67.79
2023-05-15T21:40:30.620Z,67.53
2023-05-15T21:42:56.915Z,67.32
2023-05-15T21:45:23.206Z,67.78
2023-05-15T21:47:49.582Z,68.42
2023-05-15T21:50:15.955Z,68.39
2023-05-15T21:52:42.444Z,68.41
2023-05-15T21:55:08.999Z,68.12
2023-05-15T21:57:35.530Z,69.54
2023-05-15T22:00:02.469Z,70.74
2023-05-15T22:02:28.900Z,70.89
2023-05-15T22:04:55.340Z,69.86
2023-05-15T22:07:21.639Z,69.57
2023-05-15T22:09:48.017Z,69.81
2023-05-15T22:12:14.358Z,69.16
2023-05-15T22:14:54.676Z,68.75
2023-05-15T22:17:27.010Z,68.15
2023-05-15T22:19:53.480Z,67.84
2023-05-15T22:22:20.804Z,67.63
2023-05-15T22:24:47.167Z,67.28
2023-05-15T22:27:16.410Z,67.21
2023-05-15T22:29:42.702Z,66.80
2023-05-15T22:32:09.170Z,66.40
2023-05-15T22:34:36.045Z,66.05
2023-05-15T22:37:02.492Z,65.50
2023-05-15T22:39:28.840Z,66.16
2023-05-15T22:41:55.716Z,67.16
2023-05-15T22:44:22.403Z,65.79
2023-05-15T22:46:49.300Z,66.39
2023-05-15T22:49:19.193Z,67.13
2023-05-15T22:51:45.748Z,66.13
2023-05-15T22:54:12.157Z,67.05
2023-05-15T22:56:38.434Z,66.71
2023-05-15T22:59:04.849Z,66.10
2023-05-15T23:01:32.121Z,67.30
2023-05-15T23:03:58.520Z,67.77
2023-05-15T23:06:24.865Z,67.37
2023-05-15T23:08:51.454Z,66.69
2023-05-15T23:11:17.824Z,66.53
2023-05-15T23:13:44.393Z,67.99
2023-05-15T23:16:10.769Z,66.48
2023-05-15T23:18:37.196Z,68.10
2023-05-15T23:21:04.662Z,67.20
2023-05-15T23:23:31.144Z,67.35
2023-05-15T23:25:57.599Z,68.76
2023-05-15T23:28:23.909Z,67.96
2023-05-15T23:30:53.641Z,67.29
2023-05-15T23:33:20.003Z,67.59
2023-05-15T23:35:46.417Z,67.75
2023-05-15T23:38:12.877Z,68.26
2023-05-15T23:40:39.218Z,68.14
2023-05-15T23:43:06.688Z,69.34
2023-05-15T23:45:32.982Z,69.59
2023-05-15T23:47:59.396Z,68.28
2023-05-15T23:50:26.042Z,68.14
2023-05-15T23:52:52.585Z,69.51
2023-05-15T23:55:19.045Z,68.64
2023-05-15T23:57:46.908Z,69.58
